createdAt,value
2018-09-22T00:00:12.309Z,100.00
2018-09-22T00:02:41.438Z,100.00
2018-09-22T00:05:10.554Z,100.00
2018-09-22T00:07:39.336Z,100.00
2018-09-22T00:10:08.164Z,100.00
2018-09-22T00:12:37.318Z,100.00
2018-09-22T00:15:06.276Z,100.00
2018-09-22T00:17:35.089Z,100.00
2018-09-22T00:20:04.338Z,100.00
2018-09-22T00:22:33.436Z,100.00
2018-09-22T00:25:02.524Z,100.00
2018-09-22T00:27:32.026Z,100.00
2018-09-22T00:30:01.122Z,100.00
2018-09-22T00:32:30.570Z,100.00
2018-09-22T00:34:59.365Z,100.00
2018-09-22T00:37:28.197Z,100.00
2018-09-22T00:39:57.292Z,100.00
2018-09-22T00:42:26.393Z,100.00
2018-09-22T00:44:55.193Z,100.00
2018-09-22T00:47:24.100Z,100.00
2018-09-22T00:49:52.884Z,100.00
2018-09-22T00:52:21.760Z,100.00
2018-09-22T00:54:51.105Z,100.00
2018-09-22T00:57:20.127Z,100.00
2018-09-22T00:59:49.221Z,100.00
2018-09-22T01:02:18.845Z,100.00
2018-09-22T01:04:47.973Z,100.00
2018-09-22T01:07:17.274Z,100.00
2018-09-22T01:09:46.929Z,100.00
2018-09-22T01:12:15.848Z,100.00
2018-09-22T01:14:44.714Z,100.00
2018-09-22T01:17:13.629Z,100.00
2018-09-22T01:19:42.495Z,100.00
2018-09-22T01:22:11.688Z,100.00
2018-09-22T01:24:40.637Z,100.00
2018-09-22T01:27:09.677Z,100.00
2018-09-22T01:29:38.813Z,100.00
2018-09-22T01:32:07.800Z,100.00
2018-09-22T01:34:37.215Z,100.00
2018-09-22T01:37:06.909Z,100.00
2018-09-22T01:39:36.068Z,100.00
2018-09-22T01:42:05.120Z,100.00
2018-09-22T01:44:34.953Z,100.00
2018-09-22T01:47:04.231Z,100.00
2018-09-22T01:49:33.812Z,100.00
2018-09-22T01:52:03.057Z,100.00
2018-09-22T01:54:32.227Z,100.00
2018-09-22T01:57:01.154Z,100.00
2018-09-22T01:59:30.127Z,100.00
2018-09-22T02:01:59.573Z,100.00
2018-09-22T02:04:28.902Z,100.00
2018-09-22T02:06:58.135Z,100.00
2018-09-22T02:09:27.495Z,100.00
2018-09-22T02:11:56.340Z,100.00
2018-09-22T02:14:25.225Z,100.00
2018-09-22T02:16:54.381Z,100.00
2018-09-22T02:19:23.740Z,100.00
2018-09-22T02:21:53.034Z,100.00
2018-09-22T02:24:28.466Z,100.00
2018-09-22T02:26:57.713Z,100.00
2018-09-22T02:29:27.450Z,100.00
2018-09-22T02:31:57.013Z,100.00
2018-09-22T02:34:26.399Z,100.00
2018-09-22T02:36:55.898Z,100.00
2018-09-22T02:39:25.209Z,100.00
2018-09-22T02:41:54.776Z,100.00
2018-09-22T02:44:23.941Z,100.00
2018-09-22T02:46:53.592Z,100.00
2018-09-22T02:49:22.817Z,100.00
2018-09-22T02:51:52.413Z,100.00
2018-09-22T02:54:22.119Z,100.00
2018-09-22T02:56:51.586Z,100.00
2018-09-22T02:59:20.927Z,100.00
2018-09-22T03:01:49.802Z,100.00
2018-09-22T03:04:18.813Z,100.00
2018-09-22T03:06:47.714Z,100.00
2018-09-22T03:09:16.846Z,100.00
2018-09-22T03:11:46.507Z,100.00
2018-09-22T03:14:15.568Z,100.00
2018-09-22T03:16:44.387Z,100.00
2018-09-22T03:19:13.188Z,100.00
2018-09-22T03:21:42.279Z,100.00
2018-09-22T03:24:11.123Z,100.00
2018-09-22T03:26:40.169Z,100.00
2018-09-22T03:29:09.395Z,100.00
2018-09-22T03:31:38.503Z,100.00
2018-09-22T03:34:07.358Z,100.00
2018-09-22T03:36:36.210Z,100.00
2018-09-22T03:39:07.002Z,100.00
2018-09-22T03:41:36.265Z,100.00
2018-09-22T03:44:05.057Z,100.00
2018-09-22T03:46:34.257Z,100.00
2018-09-22T03:49:03.297Z,100.00
2018-09-22T03:51:32.206Z,100.00
2018-09-22T03:54:01.028Z,100.00
2018-09-22T03:56:30.110Z,100.00
2018-09-22T03:58:59.242Z,100.00
2018-09-22T04:01:28.317Z,100.00
2018-09-22T04:03:57.065Z,100.00
2018-09-22T04:06:26.245Z,100.00
2018-09-22T04:08:55.083Z,100.00
2018-09-22T04:11:23.933Z,100.00
2018-09-22T04:13:52.716Z,100.00
2018-09-22T04:16:21.830Z,100.00
2018-09-22T04:18:50.669Z,100.00
2018-09-22T04:21:19.479Z,100.00
2018-09-22T04:23:48.598Z,100.00
2018-09-22T04:26:17.739Z,100.00
2018-09-22T04:28:47.150Z,100.00
2018-09-22T04:31:16.597Z,100.00
2018-09-22T04:33:45.698Z,100.00
2018-09-22T04:36:15.161Z,100.00
2018-09-22T04:38:44.016Z,100.00
2018-09-22T04:41:12.896Z,100.00
2018-09-22T04:43:41.730Z,100.00
2018-09-22T04:46:10.592Z,100.00
2018-09-22T04:48:39.529Z,100.00
2018-09-22T04:51:08.619Z,100.00
2018-09-22T04:53:37.594Z,100.00
2018-09-22T04:56:06.705Z,100.00
2018-09-22T04:58:35.849Z,100.00
2018-09-22T05:01:05.010Z,100.00
2018-09-22T05:03:33.876Z,100.00
2018-09-22T05:06:02.754Z,100.00
2018-09-22T05:08:31.566Z,100.00
2018-09-22T05:11:00.399Z,100.00
2018-09-22T05:13:29.227Z,100.00
2018-09-22T05:15:58.152Z,100.00
2018-09-22T05:18:27.347Z,100.00
2018-09-22T05:20:56.558Z,100.00
2018-09-22T05:23:25.433Z,100.00
2018-09-22T05:25:54.299Z,100.00
2018-09-22T05:28:23.326Z,100.00
2018-09-22T05:30:52.317Z,100.00
2018-09-22T05:33:21.826Z,100.00
2018-09-22T05:35:50.637Z,100.00
2018-09-22T05:38:19.480Z,100.00
2018-09-22T05:40:48.328Z,100.00
2018-09-22T05:43:17.651Z,100.00
2018-09-22T05:45:46.987Z,100.00
2018-09-22T05:48:16.308Z,100.00
2018-09-22T05:50:45.234Z,100.00
2018-09-22T05:53:14.412Z,100.00
2018-09-22T05:55:43.280Z,100.00
2018-09-22T05:58:12.521Z,100.00
2018-09-22T06:00:42.004Z,100.00
2018-09-22T06:03:11.348Z,100.00
2018-09-22T06:05:40.277Z,100.00
2018-09-22T06:08:09.204Z,100.00
2018-09-22T06:10:38.126Z,100.00
2018-09-22T06:13:07.329Z,100.00
2018-09-22T06:15:36.112Z,100.00
2018-09-22T06:18:05.065Z,100.00
2018-09-22T06:20:34.354Z,100.00
2018-09-22T06:23:03.443Z,100.00
2018-09-22T06:25:32.586Z,100.00
2018-09-22T06:28:01.379Z,100.00
2018-09-22T06:30:30.542Z,100.00
2018-09-22T06:32:59.616Z,100.00
2018-09-22T06:35:28.432Z,100.00
2018-09-22T06:37:57.319Z,100.00
2018-09-22T06:40:26.133Z,100.00
2018-09-22T06:42:54.942Z,100.00
2018-09-22T06:45:24.065Z,100.00
2018-09-22T06:47:52.915Z,100.00
2018-09-22T06:50:22.134Z,100.00
2018-09-22T06:52:51.405Z,100.00
2018-09-22T06:55:20.284Z,100.00
2018-09-22T06:57:49.433Z,100.00
2018-09-22T07:00:18.547Z,100.00
2018-09-22T07:02:47.317Z,100.00
2018-09-22T07:05:16.554Z,100.00
2018-09-22T07:07:45.364Z,100.00
2018-09-22T07:10:14.215Z,100.00
2018-09-22T07:12:43.007Z,100.00
2018-09-22T07:15:12.354Z,100.00
2018-09-22T07:17:41.151Z,100.00
2018-09-22T07:20:11.048Z,100.00
2018-09-22T07:22:45.455Z,100.00
2018-09-22T07:25:15.863Z,100.00
2018-09-22T07:27:44.619Z,100.00
2018-09-22T07:30:13.777Z,100.00
2018-09-22T07:32:42.622Z,100.00
2018-09-22T07:35:11.687Z,100.00
2018-09-22T07:37:40.903Z,100.00
2018-09-22T07:40:09.789Z,100.00
2018-09-22T07:42:39.027Z,100.00
2018-09-22T07:45:07.869Z,100.00
2018-09-22T07:47:37.017Z,100.00
2018-09-22T07:50:06.127Z,100.00
2018-09-22T07:52:35.282Z,100.00
2018-09-22T07:55:04.227Z,100.00
2018-09-22T07:57:33.122Z,100.00
2018-09-22T08:00:03.089Z,100.00
2018-09-22T08:02:33.037Z,100.00
2018-09-22T08:05:01.880Z,100.00
2018-09-22T08:07:30.772Z,100.00
2018-09-22T08:09:59.914Z,100.00
2018-09-22T08:12:28.808Z,100.00
2018-09-22T08:14:57.609Z,100.00
2018-09-22T08:17:26.561Z,100.00
2018-09-22T08:19:55.679Z,100.00
2018-09-22T08:22:24.797Z,100.00
2018-09-22T08:24:53.772Z,100.00
2018-09-22T08:27:22.593Z,99.25
2018-09-22T08:29:51.987Z,99.12
2018-09-22T08:32:21.220Z,98.52
2018-09-22T08:34:50.077Z,99.78
2018-09-22T08:37:19.393Z,98.08
2018-09-22T08:39:48.492Z,97.54
2018-09-22T08:42:18.139Z,97.29
2018-09-22T08:44:47.346Z,97.00
2018-09-22T08:47:16.642Z,95.89
2018-09-22T08:49:45.987Z,94.71
2018-09-22T08:52:15.175Z,93.94
2018-09-22T08:54:44.301Z,94.27
2018-09-22T08:57:13.720Z,93.36
2018-09-22T08:59:42.610Z,91.68
2018-09-22T09:02:12.017Z,93.07
2018-09-22T09:04:41.212Z,91.64
2018-09-22T09:07:10.070Z,91.30
2018-09-22T09:09:38.942Z,91.23
2018-09-22T09:12:08.227Z,91.67
2018-09-22T09:14:40.923Z,90.84
2018-09-22T09:17:10.336Z,89.22
2018-09-22T09:19:40.389Z,90.41
2018-09-22T09:22:09.236Z,90.80
2018-09-22T09:24:38.408Z,88.91
2018-09-22T09:27:07.518Z,89.79
2018-09-22T09:29:37.100Z,89.87
2018-09-22T09:32:06.205Z,90.36
2018-09-22T09:34:35.321Z,88.57
2018-09-22T09:37:04.151Z,89.21
2018-09-22T09:39:32.974Z,89.51
2018-09-22T09:42:02.048Z,90.56
2018-09-22T09:44:31.097Z,87.80
2018-09-22T09:47:00.438Z,88.63
2018-09-22T09:49:29.485Z,86.91
2018-09-22T09:51:58.834Z,88.37
2018-09-22T09:54:28.099Z,85.66
2018-09-22T09:56:57.197Z,87.24
2018-09-22T09:59:26.148Z,86.12
2018-09-22T10:01:56.383Z,84.94
2018-09-22T10:04:25.281Z,85.00
2018-09-22T10:06:54.903Z,85.24
2018-09-22T10:09:24.232Z,85.66
2018-09-22T10:11:53.278Z,83.54
2018-09-22T10:14:22.216Z,82.66
2018-09-22T10:16:51.077Z,82.49
2018-09-22T10:19:20.675Z,84.10
2018-09-22T10:21:49.921Z,83.17
2018-09-22T10:24:19.101Z,81.04
2018-09-22T10:26:48.010Z,79.23
2018-09-22T10:29:17.691Z,77.09
2018-09-22T10:31:47.467Z,77.30
2018-09-22T10:34:16.376Z,77.28
2018-09-22T10:36:45.476Z,77.80
2018-09-22T10:39:14.388Z,75.36
2018-09-22T10:41:46.097Z,76.87
2018-09-22T10:44:15.377Z,77.22
2018-09-22T10:46:44.551Z,77.54
2018-09-22T10:49:13.375Z,78.07
2018-09-22T10:51:42.767Z,78.75
2018-09-22T10:54:12.319Z,78.85
2018-09-22T10:56:41.753Z,78.07
2018-09-22T10:59:10.924Z,78.28
2018-09-22T11:01:41.124Z,79.50
2018-09-22T11:04:10.479Z,78.26
2018-09-22T11:06:39.377Z,79.21
2018-09-22T11:09:08.450Z,78.30
2018-09-22T11:11:37.327Z,77.25
2018-09-22T11:14:06.146Z,77.73
2018-09-22T11:16:35.006Z,77.39
2018-09-22T11:19:04.495Z,80.92
2018-09-22T11:21:33.392Z,79.66
2018-09-22T11:24:02.246Z,80.88
2018-09-22T11:26:31.413Z,79.53
2018-09-22T11:29:00.609Z,81.55
2018-09-22T11:31:29.763Z,86.08
2018-09-22T11:33:58.641Z,85.98
2018-09-22T11:36:27.534Z,86.63
2018-09-22T11:38:56.688Z,85.72
2018-09-22T11:41:25.838Z,85.47
2018-09-22T11:43:54.984Z,86.57
2018-09-22T11:46:23.839Z,86.80
2018-09-22T11:48:53.848Z,82.27
2018-09-22T11:51:22.627Z,82.53
2018-09-22T11:53:51.729Z,81.69
2018-09-22T11:56:20.602Z,81.06
2018-09-22T11:58:49.720Z,81.38
2018-09-22T12:01:18.590Z,82.49
2018-09-22T12:03:47.492Z,79.96
2018-09-22T12:06:17.062Z,81.72
2018-09-22T12:08:45.850Z,84.18
2018-09-22T12:11:15.228Z,85.17
2018-09-22T12:13:44.089Z,83.97
2018-09-22T12:16:13.182Z,84.80
2018-09-22T12:18:42.969Z,85.53
2018-09-22T12:21:12.629Z,84.28
2018-09-22T12:23:42.512Z,85.13
2018-09-22T12:26:11.906Z,84.22
2018-09-22T12:28:41.788Z,84.27
2018-09-22T12:31:10.606Z,85.57
2018-09-22T12:33:40.001Z,83.11
2018-09-22T12:36:09.246Z,84.68
2018-09-22T12:38:38.196Z,84.92
2018-09-22T12:41:07.430Z,83.79
2018-09-22T12:43:36.305Z,83.07
2018-09-22T12:46:05.496Z,81.23
2018-09-22T12:48:34.290Z,81.56
2018-09-22T12:51:03.811Z,82.59
2018-09-22T12:53:33.229Z,81.00
2018-09-22T12:56:02.104Z,82.00
2018-09-22T12:58:30.905Z,82.52
2018-09-22T13:00:59.689Z,82.77
2018-09-22T13:03:28.968Z,83.24
2018-09-22T13:05:58.766Z,84.08
2018-09-22T13:08:27.646Z,84.03
2018-09-22T13:10:56.914Z,84.46
2018-09-22T13:13:25.710Z,85.83
2018-09-22T13:15:54.592Z,85.59
2018-09-22T13:18:23.697Z,85.84
2018-09-22T13:20:52.491Z,86.08
2018-09-22T13:23:22.742Z,87.40
2018-09-22T13:25:52.493Z,84.88
2018-09-22T13:28:22.078Z,84.73
2018-09-22T13:30:51.598Z,84.06
2018-09-22T13:33:21.074Z,82.09
2018-09-22T13:35:50.203Z,81.81
2018-09-22T13:38:20.118Z,80.66
2018-09-22T13:40:48.961Z,81.82
2018-09-22T13:43:18.908Z,81.44
2018-09-22T13:45:48.424Z,82.27
2018-09-22T13:48:17.269Z,82.07
2018-09-22T13:50:46.424Z,82.46
2018-09-22T13:53:15.255Z,81.74
2018-09-22T13:55:44.167Z,83.09
2018-09-22T13:58:12.972Z,83.84
2018-09-22T14:00:42.159Z,83.76
2018-09-22T14:03:11.520Z,84.60
2018-09-22T14:05:40.702Z,84.79
2018-09-22T14:08:09.793Z,84.48
2018-09-22T14:10:38.807Z,85.45
2018-09-22T14:13:07.546Z,85.69
2018-09-22T14:15:36.376Z,86.80
2018-09-22T14:18:05.900Z,88.74
2018-09-22T14:20:35.144Z,90.97
2018-09-22T14:23:04.529Z,91.41
2018-09-22T14:25:33.389Z,93.11
2018-09-22T14:28:02.588Z,94.87
2018-09-22T14:30:31.429Z,96.29
2018-09-22T14:33:00.663Z,95.65
2018-09-22T14:35:29.744Z,97.12
2018-09-22T14:37:58.941Z,98.63
2018-09-22T14:40:27.835Z,99.21
2018-09-22T14:42:56.684Z,99.64
2018-09-22T14:45:25.938Z,98.60
2018-09-22T14:47:54.727Z,98.86
2018-09-22T14:50:24.054Z,99.09
2018-09-22T14:52:53.101Z,98.78
2018-09-22T14:55:22.490Z,99.09
2018-09-22T14:57:51.301Z,99.08
2018-09-22T15:00:20.232Z,99.54
2018-09-22T15:02:49.436Z,99.53
2018-09-22T15:05:19.184Z,100.00
2018-09-22T15:07:48.912Z,100.00
2018-09-22T15:10:17.813Z,100.00
2018-09-22T15:12:46.711Z,99.65
2018-09-22T15:15:15.641Z,99.21
2018-09-22T15:17:44.477Z,100.00
2018-09-22T15:20:13.932Z,100.00
2018-09-22T15:22:43.461Z,100.00
2018-09-22T15:25:12.291Z,100.00
2018-09-22T15:27:41.365Z,99.92
2018-09-22T15:30:10.212Z,99.53
2018-09-22T15:32:38.978Z,99.20
2018-09-22T15:35:07.954Z,98.53
2018-09-22T15:37:37.738Z,98.02
2018-09-22T15:40:08.142Z,98.67
2018-09-22T15:42:37.463Z,98.60
2018-09-22T15:45:07.122Z,99.57
2018-09-22T15:47:36.322Z,100.00
2018-09-22T15:50:05.565Z,100.00
2018-09-22T15:52:35.017Z,100.00
2018-09-22T15:55:03.909Z,100.00
2018-09-22T15:57:33.076Z,100.00
2018-09-22T16:00:02.178Z,100.00
2018-09-22T16:02:31.227Z,100.00
2018-09-22T16:05:00.392Z,100.00
2018-09-22T16:07:29.783Z,100.00
2018-09-22T16:09:58.987Z,100.00
2018-09-22T16:12:27.842Z,100.00
2018-09-22T16:14:57.265Z,100.00
2018-09-22T16:17:26.620Z,100.00
2018-09-22T16:19:56.403Z,100.00
2018-09-22T16:22:25.301Z,100.00
2018-09-22T16:24:54.136Z,100.00
2018-09-22T16:27:23.356Z,100.00
2018-09-22T16:29:52.208Z,100.00
2018-09-22T16:32:21.080Z,100.00
2018-09-22T16:34:50.100Z,100.00
2018-09-22T16:37:19.685Z,100.00
2018-09-22T16:39:48.554Z,100.00
2018-09-22T16:42:17.880Z,100.00
2018-09-22T16:44:46.957Z,100.00
2018-09-22T16:47:15.743Z,100.00
2018-09-22T16:49:44.646Z,100.00
2018-09-22T16:52:14.800Z,100.00
2018-09-22T16:54:43.919Z,100.00
2018-09-22T16:57:13.437Z,100.00
2018-09-22T16:59:42.530Z,100.00
2018-09-22T17:02:11.373Z,100.00
2018-09-22T17:04:40.707Z,100.00
2018-09-22T17:07:09.602Z,100.00
2018-09-22T17:09:38.787Z,100.00
2018-09-22T17:12:07.602Z,100.00
2018-09-22T17:14:36.692Z,100.00
2018-09-22T17:17:06.061Z,100.00
2018-09-22T17:19:35.155Z,100.00
2018-09-22T17:22:04.465Z,100.00
2018-09-22T17:24:33.311Z,100.00
2018-09-22T17:27:02.441Z,100.00
2018-09-22T17:29:31.782Z,100.00
2018-09-22T17:32:00.776Z,100.00
2018-09-22T17:34:30.220Z,100.00
2018-09-22T17:36:59.050Z,100.00
2018-09-22T17:39:27.957Z,100.00
2018-09-22T17:41:56.781Z,100.00
2018-09-22T17:44:25.726Z,100.00
2018-09-22T17:46:55.024Z,100.00
2018-09-22T17:49:23.859Z,100.00
2018-09-22T17:51:52.616Z,100.00
2018-09-22T17:54:21.742Z,100.00
2018-09-22T17:56:51.020Z,100.00
2018-09-22T17:59:19.935Z,100.00
2018-09-22T18:01:49.009Z,100.00
2018-09-22T18:04:18.126Z,100.00
2018-09-22T18:06:47.624Z,100.00
2018-09-22T18:09:16.743Z,100.00
2018-09-22T18:11:46.173Z,100.00
2018-09-22T18:14:15.502Z,100.00
2018-09-22T18:16:44.405Z,100.00
2018-09-22T18:19:13.253Z,100.00
2018-09-22T18:21:42.680Z,100.00
2018-09-22T18:24:11.793Z,100.00
2018-09-22T18:26:41.388Z,100.00
2018-09-22T18:29:10.873Z,100.00
2018-09-22T18:31:40.107Z,100.00
2018-09-22T18:34:09.829Z,100.00
2018-09-22T18:36:41.827Z,100.00
2018-09-22T18:39:10.948Z,100.00
2018-09-22T18:41:40.667Z,100.00
2018-09-22T18:44:09.577Z,100.00
2018-09-22T18:46:38.554Z,100.00
2018-09-22T18:49:07.616Z,100.00
2018-09-22T18:51:36.861Z,100.00
2018-09-22T18:54:06.245Z,100.00
2018-09-22T18:56:35.196Z,100.00
2018-09-22T18:59:04.079Z,100.00
2018-09-22T19:01:32.940Z,100.00
2018-09-22T19:04:01.793Z,100.00
2018-09-22T19:06:30.803Z,100.00
2018-09-22T19:08:59.989Z,100.00
2018-09-22T19:11:29.720Z,100.00
2018-09-22T19:14:04.965Z,100.00
2018-09-22T19:16:37.540Z,100.00
2018-09-22T19:19:10.940Z,100.00
2018-09-22T19:21:46.856Z,100.00
2018-09-22T19:25:18.502Z,100.00
2018-09-22T19:27:50.617Z,100.00
2018-09-22T19:30:24.596Z,100.00
2018-09-22T19:32:59.232Z,100.00
2018-09-22T19:35:34.816Z,100.00
2018-09-22T19:38:09.322Z,100.00
2018-09-22T19:41:18.614Z,100.00
2018-09-22T19:43:59.028Z,100.00
2018-09-22T19:46:32.708Z,100.00
2018-09-22T19:49:14.378Z,100.00
2018-09-22T19:51:47.017Z,100.00
2018-09-22T19:54:17.138Z,100.00
2018-09-22T19:56:46.514Z,100.00
2018-09-22T19:59:15.322Z,100.00
2018-09-22T20:01:44.526Z,100.00
2018-09-22T20:04:13.346Z,100.00
2018-09-22T20:06:42.829Z,100.00
2018-09-22T20:09:12.114Z,100.00
2018-09-22T20:11:40.931Z,100.00
2018-09-22T20:14:10.710Z,100.00
2018-09-22T20:16:39.833Z,100.00
2018-09-22T20:19:08.667Z,100.00
2018-09-22T20:21:37.527Z,100.00
2018-09-22T20:24:07.072Z,100.00
2018-09-22T20:26:35.872Z,100.00
2018-09-22T20:29:05.180Z,100.00
2018-09-22T20:31:34.469Z,100.00
2018-09-22T20:34:04.212Z,100.00
2018-09-22T20:36:34.188Z,100.00
2018-09-22T20:39:05.118Z,100.00
2018-09-22T20:41:35.440Z,100.00
2018-09-22T20:44:06.109Z,100.00
2018-09-22T20:46:36.250Z,100.00
2018-09-22T20:49:06.817Z,100.00
2018-09-22T20:51:36.676Z,100.00
2018-09-22T20:54:05.972Z,100.00
2018-09-22T20:56:35.427Z,100.00
2018-09-22T20:59:04.578Z,100.00
2018-09-22T21:01:33.441Z,100.00
2018-09-22T21:04:02.720Z,100.00
2018-09-22T21:06:31.844Z,100.00
2018-09-22T21:09:00.706Z,100.00
2018-09-22T21:11:29.795Z,100.00
2018-09-22T21:13:58.861Z,100.00
2018-09-22T21:16:27.683Z,100.00
2018-09-22T21:18:57.105Z,100.00
2018-09-22T21:21:26.449Z,100.00
2018-09-22T21:23:55.479Z,100.00
2018-09-22T21:26:24.501Z,100.00
2018-09-22T21:28:53.656Z,100.00
2018-09-22T21:31:22.457Z,100.00
2018-09-22T21:33:51.967Z,100.00
2018-09-22T21:36:20.762Z,100.00
2018-09-22T21:38:49.878Z,100.00
2018-09-22T21:41:18.806Z,100.00
2018-09-22T21:43:47.648Z,100.00
2018-09-22T21:46:16.491Z,100.00
2018-09-22T21:48:45.340Z,100.00
2018-09-22T21:51:14.496Z,100.00
2018-09-22T21:53:43.600Z,100.00
2018-09-22T21:56:12.717Z,100.00
2018-09-22T21:58:41.593Z,100.00
2018-09-22T22:01:15.603Z,100.00
2018-09-22T22:03:44.384Z,100.00
2018-09-22T22:06:13.443Z,100.00
2018-09-22T22:08:42.669Z,100.00
2018-09-22T22:11:11.874Z,100.00
2018-09-22T22:13:41.570Z,100.00
2018-09-22T22:16:10.507Z,100.00
2018-09-22T22:18:39.408Z,100.00
2018-09-22T22:21:08.847Z,100.00
2018-09-22T22:23:37.789Z,100.00
2018-09-22T22:26:06.823Z,100.00
2018-09-22T22:28:35.997Z,100.00
2018-09-22T22:31:05.170Z,100.00
2018-09-22T22:33:34.054Z,100.00
2018-09-22T22:36:20.093Z,100.00
2018-09-22T22:38:49.281Z,100.00
2018-09-22T22:41:18.505Z,100.00
2018-09-22T22:43:47.967Z,100.00
2018-09-22T22:46:17.868Z,100.00
2018-09-22T22:48:48.344Z,100.00
2018-09-22T22:51:18.352Z,100.00
2018-09-22T22:53:48.670Z,100.00
2018-09-22T22:56:18.831Z,100.00
2018-09-22T22:58:48.578Z,100.00
2018-09-22T23:01:18.737Z,100.00
2018-09-22T23:03:49.104Z,100.00
2018-09-22T23:06:19.622Z,100.00
2018-09-22T23:08:49.801Z,100.00
2018-09-22T23:11:18.836Z,100.00
2018-09-22T23:13:47.724Z,100.00
2018-09-22T23:16:16.827Z,100.00
2018-09-22T23:18:45.680Z,100.00
2018-09-22T23:21:14.850Z,100.00
2018-09-22T23:23:43.681Z,100.00
2018-09-22T23:26:13.450Z,100.00
2018-09-22T23:28:42.318Z,100.00
2018-09-22T23:31:11.525Z,100.00
2018-09-22T23:33:40.602Z,100.00
2018-09-22T23:36:09.469Z,100.00
2018-09-22T23:38:38.380Z,100.00
2018-09-22T23:41:07.460Z,100.00
2018-09-22T23:43:37.336Z,100.00
2018-09-22T23:46:06.703Z,100.00
2018-09-22T23:48:35.797Z,100.00
2018-09-22T23:51:05.251Z,100.00
2018-09-22T23:53:34.054Z,100.00
2018-09-22T23:56:03.131Z,100.00
2018-09-22T23:58:32.309Z,100.00
